Thursday, March 30, 2017, 2:28 PM EDT

KPTW, Pottstown Limerick Airport

Location: Royersford, PA, United States Lat: 40.233
Local Time: 2:28 PM EDT (18:28 GMT) Lon: -75.55
Time Zone: US/Eastern Elev: 291 ft

Show me the last for .
Show Decoded

2017-03-30 13:54 METAR KPTW 301754Z AUTO VRB03KT 10SM BKN090 OVC110 07/M04 A3021 RMK AO2 SLP230
                 T00721044 10083 20022 58019 TSNO $ =
2017-03-30 12:54 METAR KPTW 301654Z AUTO 00000KT 10SM OVC110 07/M05 A3023 RMK AO2 SLP237
                 T00671050 TSNO $ =
2017-03-30 11:54 METAR KPTW 301554Z AUTO 23003KT 10SM OVC110 06/M05 A3026 RMK AO2 SLP245
                 T00611050 TSNO $ =
2017-03-30 10:54 METAR KPTW 301454Z AUTO 19004KT 10SM FEW120 05/M06 A3027 RMK AO2 SLP249
                 T00501056 58005 TSNO $ =
2017-03-30 09:54 METAR KPTW 301354Z AUTO 09003KT 10SM SCT120 05/M04 A3027 RMK AO2 SLP250
                 T00501044 TSNO $ =
2017-03-30 08:54 METAR KPTW 301254Z AUTO 03005KT 10SM CLR 04/M04 A3029 RMK AO2 SLP257 T00391044
                 TSNO $ =
2017-03-30 07:54 METAR KPTW 301154Z AUTO 00000KT 10SM CLR 02/M03 A3028 RMK AO2 SLP254 T00221028
                 10033 21006 50016 TSNO $ =
2017-03-30 06:54 METAR KPTW 301054Z AUTO 00000KT 10SM CLR M01/M04 A3029 RMK AO2 SLP255 T10061044
                 TSNO $ =
2017-03-30 05:54 METAR KPTW 300954Z AUTO 00000KT 10SM CLR 00/M04 A3027 RMK AO2 SLP249 T00001044
                 TSNO $ =
2017-03-30 04:54 METAR KPTW 300854Z AUTO 00000KT 10SM CLR 02/M05 A3024 RMK AO2 SLP237 T00221050
                 55002 TSNO $ =
2017-03-30 03:54 METAR KPTW 300754Z AUTO 03012KT 10SM CLR 02/M05 A3021 RMK AO2 SLP228 T00221050
                 TSNO $ =
2017-03-30 02:54 METAR KPTW 300654Z AUTO 01003KT 10SM CLR 02/M05 A3023 RMK AO2 SLP237 T00171050
                 TSNO $ =
2017-03-30 01:54 METAR KPTW 300554Z AUTO 00000KT 10SM CLR 03/M05 A3024 RMK AO2 SLP239 T00331050
                 10100 20028 55003 TSNO $ =
2017-03-30 00:54 METAR KPTW 300454Z AUTO 02003KT 10SM CLR 04/M04 A3024 RMK AO2 SLP239 T00391044
                 401440039 TSNO $ =
2017-03-29 23:54 METAR KPTW 300354Z AUTO 01006KT 10SM CLR 06/M04 A3025 RMK AO2 SLP242 T00561039
                 TSNO $ =
2017-03-29 22:54 METAR KPTW 300254Z AUTO 01008KT 10SM CLR 07/M04 A3025 RMK AO2 SLP242 T00671044
                 51024 TSNO $ =
2017-03-29 21:54 METAR KPTW 300154Z AUTO 36008KT 10SM CLR 08/M04 A3023 RMK AO2 SLP236 T00781039
                 TSNO $ =
2017-03-29 20:54 METAR KPTW 300054Z AUTO 01014G23KT 10SM CLR 09/M04 A3021 RMK AO2 SLP229
                 T00891039 TSNO $ =
2017-03-29 19:54 METAR KPTW 292354Z AUTO 36010KT 10SM CLR 10/M04 A3018 RMK AO2 SLP218 T01001039
                 10144 20100 53027 TSNO $ =
2017-03-29 18:54 METAR KPTW 292254Z AUTO 36010KT 10SM CLR 12/M03 A3014 RMK AO2 SLP204 T01171033
                 TSNO $ =
2017-03-29 17:54 METAR KPTW 292154Z AUTO 36012KT 10SM CLR 13/M02 A3012 RMK AO2 SLP198 T01331022
                 TSNO $ =
2017-03-29 16:54 METAR KPTW 292054Z AUTO 36010KT 10SM CLR 14/M02 A3010 RMK AO2 SLP190 T01391017
                 55003 TSNO $ =
2017-03-29 15:54 METAR KPTW 291954Z AUTO 36013G18KT 10SM CLR 14/M01 A3009 RMK AO2 SLP186
                 T01391006 TSNO $ =
2017-03-29 14:54 METAR KPTW 291854Z AUTO 32010KT 10SM CLR 14/00 A3009 RMK AO2 SLP187 T01390000
                 TSNO $ =

Support USWX by starting your Amazon purchase here.